Time;durP1;ratioP1;P1;durP2;ratioP2;P2;SDS_P1;SDS_P2;PMS_P1;PMS_P2;Temp;Humidity;BMP_temperature;BMP_pressure;BME280_temperature;BME280_humidity;BME280_pressure;Samples;Min_cycle;Max_cycle;Signal;HPM_P1;HPM_P2
2023/03/16 00:00:47;;;;;;;5.20;4.70;;;;;;;3.48;100.00;101638.06;5067148;28;20032;-64
2023/03/16 00:03:18;;;;;;;6.30;4.37;;;;;;;3.48;100.00;101643.19;5069386;28;20294;-64
2023/03/16 00:05:45;;;;;;;5.60;4.30;;;;;;;3.49;100.00;101641.50;5067995;28;20145;-64
2023/03/16 00:08:11;;;;;;;8.20;4.27;;;;;;;3.50;100.00;101643.31;5069546;28;20081;-64
2023/03/16 00:10:36;;;;;;;6.70;4.53;;;;;;;3.50;100.00;101633.06;5068546;28;20468;-64
2023/03/16 00:13:02;;;;;;;6.40;4.53;;;;;;;3.48;100.00;101630.38;5069947;28;20029;-64
2023/03/16 00:15:28;;;;;;;6.40;4.30;;;;;;;3.50;100.00;101633.06;5055990;28;20024;-64
2023/03/16 00:17:54;;;;;;;7.60;4.87;;;;;;;3.50;100.00;101625.38;5070216;28;20059;-64
2023/03/16 00:20:19;;;;;;;5.43;4.93;;;;;;;3.50;100.00;101622.81;5068418;28;20056;-64
2023/03/16 00:22:44;;;;;;;5.57;4.73;;;;;;;3.51;100.00;101629.69;5057706;28;20283;-65
2023/03/16 00:25:13;;;;;;;5.50;4.90;;;;;;;3.48;100.00;101617.56;5053769;28;20450;-64
2023/03/16 00:27:39;;;;;;;5.57;4.40;;;;;;;3.48;100.00;101614.09;5058301;28;20025;-66
2023/03/16 00:30:08;;;;;;;6.43;4.40;;;;;;;3.49;100.00;101621.00;5049333;28;20103;-65
2023/03/16 00:32:38;;;;;;;5.57;4.50;;;;;;;3.50;100.00;101619.34;5050360;28;20408;-65
2023/03/16 00:35:04;;;;;;;4.93;4.43;;;;;;;3.45;100.00;101617.31;5049792;28;20028;-65
2023/03/16 00:37:31;;;;;;;4.77;4.27;;;;;;;3.43;100.00;101606.09;5049756;28;20486;-65
2023/03/16 00:39:57;;;;;;;5.00;4.23;;;;;;;3.45;100.00;101606.19;5050077;28;20029;-64
2023/03/16 00:42:28;;;;;;;5.80;4.45;;;;;;;3.45;100.00;101598.50;5048990;28;20090;-65
2023/03/16 00:45:01;;;;;;;6.23;4.30;;;;;;;3.44;100.00;101600.16;5050262;28;20021;-65
2023/03/16 00:47:29;;;;;;;6.37;4.33;;;;;;;3.45;100.00;101595.94;5050140;28;20111;-65
2023/03/16 00:49:54;;;;;;;5.97;4.43;;;;;;;3.45;100.00;101598.50;5049911;28;20051;-64
2023/03/16 00:52:22;;;;;;;5.63;4.53;;;;;;;3.45;100.00;101595.94;5049090;28;20052;-65
2023/03/16 00:54:48;;;;;;;5.40;4.50;;;;;;;3.45;100.00;101594.25;5049338;28;20505;-65
2023/03/16 00:57:17;;;;;;;5.47;4.30;;;;;;;3.43;100.00;101584.69;5049302;28;20040;-65
2023/03/16 00:59:43;;;;;;;4.70;4.30;;;;;;;3.44;100.00;101583.91;5050004;28;20098;-64
2023/03/16 01:02:09;;;;;;;7.30;4.30;;;;;;;3.46;100.00;101574.66;5050044;28;20108;-64
2023/03/16 01:04:35;;;;;;;4.83;4.40;;;;;;;3.45;100.00;101575.44;5049951;28;20111;-65
2023/03/16 01:07:02;;;;;;;7.90;4.60;;;;;;;3.45;100.00;101572.88;5050896;28;20271;-65
2023/03/16 01:09:28;;;;;;;4.83;4.33;;;;;;;3.45;100.00;101565.19;5048838;28;20025;-65
2023/03/16 01:11:53;;;;;;;6.17;4.23;;;;;;;3.44;100.00;101565.94;5052147;28;20051;-64
2023/03/16 01:14:20;;;;;;;5.50;4.53;;;;;;;3.44;100.00;101558.25;5059593;28;20031;-65
2023/03/16 01:16:45;;;;;;;6.20;4.70;;;;;;;3.45;100.00;101560.06;5048586;28;20029;-65
2023/03/16 01:19:12;;;;;;;5.23;4.17;;;;;;;3.44;100.00;101555.69;5048374;28;20063;-65
2023/03/16 01:21:39;;;;;;;5.47;4.33;;;;;;;3.44;100.00;101550.56;5048323;28;20528;-65
2023/03/16 01:24:04;;;;;;;5.17;4.40;;;;;;;3.45;100.00;101547.25;5048774;28;20039;-64
2023/03/16 01:26:30;;;;;;;4.67;4.07;;;;;;;3.44;100.00;101540.31;5047642;28;20501;-65
2023/03/16 01:28:55;;;;;;;5.43;4.93;;;;;;;3.43;100.00;101536.00;5049008;28;20397;-65
2023/03/16 01:31:21;;;;;;;6.20;4.70;;;;;;;3.41;100.00;101535.88;5048885;28;20454;-64
2023/03/16 01:33:46;;;;;;;6.30;4.80;;;;;;;3.43;100.00;101533.44;5048679;28;20633;-65
2023/03/16 01:36:14;;;;;;;6.17;4.53;;;;;;;3.42;100.00;101535.09;5048909;28;20024;-65
2023/03/16 01:38:40;;;;;;;8.33;5.07;;;;;;;3.42;100.00;101527.41;5049192;28;20064;-64
2023/03/16 01:41:07;;;;;;;7.53;4.50;;;;;;;3.42;100.00;101532.53;5047553;28;20056;-64
2023/03/16 01:43:34;;;;;;;6.47;4.20;;;;;;;3.42;100.00;101526.53;5048821;28;20039;-65
2023/03/16 01:46:05;;;;;;;6.00;4.47;;;;;;;3.42;100.00;101529.97;5049380;28;20021;-65
2023/03/16 01:48:55;;;;;;;5.40;4.63;;;;;;;3.42;100.00;101531.66;5047957;28;20114;-65
2023/03/16 01:51:28;;;;;;;6.37;4.50;;;;;;;3.42;100.00;101527.41;5035999;28;20016;-65
2023/03/16 01:53:58;;;;;;;5.13;4.63;;;;;;;3.42;100.00;101523.97;5049461;28;20052;-65
2023/03/16 01:56:33;;;;;;;6.70;5.00;;;;;;;3.42;100.00;101508.59;5048581;28;20404;-65
2023/03/16 01:59:01;;;;;;;6.60;4.57;;;;;;;3.41;100.00;101520.50;5049947;28;20124;-64
2023/03/16 02:01:27;;;;;;;7.23;4.87;;;;;;;3.40;100.00;101518.72;5048901;28;20048;-65
2023/03/16 02:04:06;;;;;;;5.10;4.60;;;;;;;3.44;100.00;101514.69;5049166;28;20021;-65
2023/03/16 02:06:31;;;;;;;5.57;4.70;;;;;;;3.41;100.00;101517.06;5048673;28;20021;-64
2023/03/16 02:08:57;;;;;;;7.50;5.40;;;;;;;3.42;100.00;101513.72;5049226;28;20433;-64
2023/03/16 02:11:24;;;;;;;6.27;5.07;;;;;;;3.42;100.00;101511.16;5048191;28;20024;-64
2023/03/16 02:13:51;;;;;;;6.27;4.90;;;;;;;3.43;100.00;101505.25;5060839;28;20072;-65
2023/03/16 02:16:18;;;;;;;5.60;4.73;;;;;;;3.42;100.00;101500.91;5058836;28;20074;-65
2023/03/16 02:18:47;;;;;;;7.93;4.63;;;;;;;3.43;100.00;101497.56;5048808;28;20035;-64
2023/03/16 02:21:31;;;;;;;5.37;4.43;;;;;;;3.43;100.00;101500.13;5060023;28;20518;-65
2023/03/16 02:23:58;;;;;;;6.30;4.57;;;;;;;3.44;100.00;101509.56;5067308;28;20074;-65
2023/03/16 02:26:46;;;;;;;8.23;4.87;;;;;;;3.44;100.00;101494.19;5066125;28;20365;-64
2023/03/16 02:29:40;;;;;;;8.07;4.63;;;;;;;3.43;100.00;101501.03;5066825;28;20020;-64
2023/03/16 02:32:06;;;;;;;6.33;4.40;;;;;;;3.43;100.00;101492.44;5057308;28;20489;-64
2023/03/16 02:34:32;;;;;;;5.07;4.57;;;;;;;3.43;100.00;101500.13;5048871;28;20508;-64
2023/03/16 02:36:59;;;;;;;6.40;5.00;;;;;;;3.41;100.00;101494.00;5067206;28;20032;-64
2023/03/16 02:39:24;;;;;;;5.63;4.37;;;;;;;3.43;100.00;101497.56;5053940;28;20020;-65
2023/03/16 02:41:49;;;;;;;5.30;4.80;;;;;;;3.43;100.00;101497.56;5066941;28;20025;-65
2023/03/16 02:44:27;;;;;;;5.13;4.33;;;;;;;3.42;100.00;101494.09;5066284;28;20174;-64
2023/03/16 02:46:58;;;;;;;5.40;4.90;;;;;;;3.41;100.00;101499.13;5066856;28;20607;-64
2023/03/16 02:49:28;;;;;;;5.57;4.93;;;;;;;3.37;100.00;101492.88;5070446;28;20023;-65
2023/03/16 02:51:56;;;;;;;7.40;5.00;;;;;;;3.38;100.00;101496.34;5070549;28;20032;-65
2023/03/16 02:54:21;;;;;;;5.87;4.43;;;;;;;3.38;100.00;101488.66;5070183;28;20028;-65
2023/03/16 02:56:46;;;;;;;5.90;5.17;;;;;;;3.39;100.00;101490.41;5070607;28;20028;-65
2023/03/16 02:59:12;;;;;;;5.50;4.33;;;;;;;3.36;100.00;101486.84;5069543;28;20020;-65
2023/03/16 03:01:37;;;;;;;5.50;4.50;;;;;;;3.36;100.00;101476.59;5069665;28;20017;-64
2023/03/16 03:04:04;;;;;;;5.30;4.13;;;;;;;3.37;100.00;101477.50;5069206;28;20020;-65
2023/03/16 03:06:31;;;;;;;5.37;4.03;;;;;;;3.36;100.00;101471.47;5069698;28;20043;-65
2023/03/16 03:08:57;;;;;;;6.77;4.73;;;;;;;3.38;100.00;101476.75;5068474;28;20038;-64
2023/03/16 03:11:22;;;;;;;4.95;4.05;;;;;;;3.40;100.00;101479.41;5069141;28;20119;-64
2023/03/16 03:13:47;;;;;;;4.97;4.27;;;;;;;3.39;100.00;101475.03;5068858;28;20021;-64
2023/03/16 03:16:12;;;;;;;4.93;4.20;;;;;;;3.38;100.00;101474.19;5070699;28;20020;-64
2023/03/16 03:18:38;;;;;;;5.87;4.87;;;;;;;3.38;100.00;101463.94;5069721;28;20031;-64
2023/03/16 03:21:04;;;;;;;6.17;4.80;;;;;;;3.36;100.00;101463.78;5070422;28;20028;-64
2023/03/16 03:23:29;;;;;;;4.93;4.43;;;;;;;3.36;100.00;101466.34;5069729;28;20111;-65
2023/03/16 03:25:58;;;;;;;5.33;4.30;;;;;;;3.34;100.00;101465.38;5070471;28;20052;-64
2023/03/16 03:28:24;;;;;;;7.07;4.87;;;;;;;3.33;100.00;101461.03;5069910;28;20025;-65
2023/03/16 03:30:50;;;;;;;6.27;4.30;;;;;;;3.32;100.00;101463.47;5069886;28;20399;-64
2023/03/16 03:33:15;;;;;;;6.03;4.80;;;;;;;3.34;100.00;101456.78;5068813;28;20017;-65
2023/03/16 03:35:41;;;;;;;6.60;4.40;;;;;;;3.33;100.00;101461.03;5069880;28;20439;-65
2023/03/16 03:38:07;;;;;;;5.30;4.00;;;;;;;3.31;100.00;101462.56;5068729;28;20491;-64
2023/03/16 03:40:32;;;;;;;5.77;4.37;;;;;;;3.32;100.00;101454.13;5069267;28;20032;-64
2023/03/16 03:42:58;;;;;;;5.40;4.50;;;;;;;3.31;100.00;101452.31;5069024;28;20098;-65
2023/03/16 03:45:23;;;;;;;4.77;4.30;;;;;;;3.30;100.00;101452.22;5069148;28;20594;-64
2023/03/16 03:47:48;;;;;;;5.47;4.20;;;;;;;3.27;100.00;101450.34;5068975;28;20016;-65
2023/03/16 03:50:14;;;;;;;4.03;3.70;;;;;;;3.28;100.00;101457.22;5069179;28;20497;-65
2023/03/16 03:52:39;;;;;;;8.03;4.40;;;;;;;3.27;100.00;101460.59;5067949;28;20037;-65
2023/03/16 03:55:05;;;;;;;6.50;4.37;;;;;;;3.27;100.00;101452.91;5069111;28;20028;-65
2023/03/16 03:57:30;;;;;;;6.60;5.00;;;;;;;3.26;100.00;101457.94;5067545;28;20393;-65
2023/03/16 03:59:56;;;;;;;4.97;4.03;;;;;;;3.24;100.00;101456.13;5068327;28;20028;-64
2023/03/16 04:02:21;;;;;;;6.10;4.30;;;;;;;3.27;100.00;101449.44;5067524;28;20530;-65
2023/03/16 04:04:47;;;;;;;6.50;4.50;;;;;;;3.26;100.00;101448.53;5069005;28;20031;-64
2023/03/16 04:07:12;;;;;;;5.87;4.43;;;;;;;3.26;100.00;101438.28;5066701;28;20044;-64
2023/03/16 04:09:38;;;;;;;6.37;4.57;;;;;;;3.28;100.00;101435.84;5068928;28;20028;-64
2023/03/16 04:12:04;;;;;;;5.43;4.33;;;;;;;3.28;100.00;101436.75;5066387;28;20016;-64
2023/03/16 04:14:30;;;;;;;4.50;4.07;;;;;;;3.28;100.00;101431.63;5059334;28;20509;-65
2023/03/16 04:16:55;;;;;;;4.57;4.00;;;;;;;3.30;100.00;101434.28;5050079;28;20094;-65
2023/03/16 04:19:22;;;;;;;4.73;3.90;;;;;;;3.32;100.00;101423.38;5049864;28;20025;-65
2023/03/16 04:21:48;;;;;;;5.40;3.90;;;;;;;3.33;100.00;101414.91;5050960;28;20114;-65
2023/03/16 04:24:16;;;;;;;6.20;4.10;;;;;;;3.33;100.00;101424.25;5050330;28;20020;-64
2023/03/16 04:26:43;;;;;;;6.73;3.47;;;;;;;3.38;100.00;101429.72;5050899;28;20036;-65
2023/03/16 04:29:10;;;;;;;7.83;3.83;;;;;;;3.40;100.00;101425.59;5050263;28;20397;-64
2023/03/16 04:31:35;;;;;;;6.00;4.07;;;;;;;3.39;100.00;101424.69;5050959;28;20016;-65
2023/03/16 04:34:01;;;;;;;4.23;3.40;;;;;;;3.42;100.00;101429.16;5049969;28;20025;-65
2023/03/16 04:36:27;;;;;;;4.43;3.10;;;;;;;3.42;100.00;101422.34;5051906;28;20025;-64
2023/03/16 04:38:52;;;;;;;6.70;4.40;;;;;;;3.43;100.00;101425.81;5050351;28;20481;-64
2023/03/16 04:41:18;;;;;;;3.60;3.27;;;;;;;3.44;100.00;101425.00;5051088;28;20025;-65
2023/03/16 04:43:43;;;;;;;7.37;4.00;;;;;;;3.44;100.00;101419.88;5050124;28;20032;-64
2023/03/16 04:46:10;;;;;;;4.70;3.23;;;;;;;3.43;100.00;101423.25;5050345;28;20025;-65
2023/03/16 04:48:35;;;;;;;5.10;3.63;;;;;;;3.43;100.00;101421.56;5050946;28;20305;-65
2023/03/16 04:51:02;;;;;;;5.87;3.53;;;;;;;3.44;100.00;101417.31;5052221;28;20461;-64
2023/03/16 04:53:28;;;;;;;4.80;3.23;;;;;;;3.45;100.00;101419.97;5049957;28;20052;-65
2023/03/16 04:55:54;;;;;;;6.30;4.00;;;;;;;3.44;100.00;101420.78;5051112;28;20047;-65
2023/03/16 04:58:19;;;;;;;4.67;3.47;;;;;;;3.44;100.00;101419.88;5050104;28;20025;-64
2023/03/16 05:00:44;;;;;;;5.53;4.03;;;;;;;3.43;100.00;101408.75;5051611;28;20530;-65
2023/03/16 05:03:10;;;;;;;6.63;4.67;;;;;;;3.44;100.00;101417.31;5050483;28;20112;-64
2023/03/16 05:05:39;;;;;;;8.37;3.30;;;;;;;3.43;100.00;101405.31;5052075;28;20187;-65
2023/03/16 05:08:05;;;;;;;5.43;3.50;;;;;;;3.44;100.00;101413.09;5050533;28;20029;-64
2023/03/16 05:10:32;;;;;;;5.70;3.43;;;;;;;3.45;100.00;101414.00;5050670;28;20021;-65
2023/03/16 05:12:57;;;;;;;4.40;3.40;;;;;;;3.46;100.00;101415.75;5060581;28;20056;-65
2023/03/16 05:15:22;;;;;;;3.93;3.30;;;;;;;3.45;100.00;101406.31;5050849;28;20053;-64
2023/03/16 05:17:48;;;;;;;6.00;3.23;;;;;;;3.43;100.00;101411.31;5048322;28;20033;-64
2023/03/16 05:20:14;;;;;;;3.87;3.30;;;;;;;3.42;100.00;101400.97;5048402;28;20070;-64
2023/03/16 05:22:40;;;;;;;3.30;3.03;;;;;;;3.40;100.00;101394.84;5047719;28;20486;-65
2023/03/16 05:25:07;;;;;;;4.83;3.17;;;;;;;3.41;100.00;101394.06;5052497;28;20036;-64
2023/03/16 05:27:33;;;;;;;5.13;3.50;;;;;;;3.43;100.00;101395.06;5068118;28;20032;-65
2023/03/16 05:30:00;;;;;;;3.87;3.20;;;;;;;3.43;100.00;101395.06;5067870;28;20091;-65
2023/03/16 05:32:25;;;;;;;4.10;3.10;;;;;;;3.45;100.00;101393.50;5068472;28;20275;-64
2023/03/16 05:34:52;;;;;;;5.37;3.40;;;;;;;3.46;100.00;101397.81;5061254;28;20359;-65
2023/03/16 05:37:18;;;;;;;5.73;3.37;;;;;;;3.48;100.00;101391.13;5059693;28;20016;-65
2023/03/16 05:39:43;;;;;;;4.33;3.30;;;;;;;3.49;100.00;101392.91;5058249;28;20028;-64
2023/03/16 05:42:09;;;;;;;5.83;3.30;;;;;;;3.45;100.00;101384.09;5039445;28;20021;-65
2023/03/16 05:44:34;;;;;;;4.33;3.10;;;;;;;3.48;100.00;101388.56;5048260;28;20017;-65
2023/03/16 05:46:59;;;;;;;4.13;3.13;;;;;;;3.46;100.00;101379.88;5048159;28;20021;-64
2023/03/16 05:49:25;;;;;;;4.50;3.60;;;;;;;3.48;100.00;101374.09;5048284;28;20542;-65
2023/03/16 05:51:50;;;;;;;5.80;3.27;;;;;;;3.46;100.00;101377.31;5048104;28;20025;-65
2023/03/16 05:54:16;;;;;;;3.97;3.20;;;;;;;3.46;100.00;101370.53;5046879;28;20054;-64
2023/03/16 05:56:41;;;;;;;4.93;3.00;;;;;;;3.47;100.00;101374.84;5046997;28;20021;-65
2023/03/16 05:59:06;;;;;;;5.33;3.30;;;;;;;3.49;100.00;101374.97;5062948;28;20158;-64
2023/03/16 06:01:33;;;;;;;7.57;3.23;;;;;;;3.48;100.00;101371.53;5065405;28;20476;-65
2023/03/16 06:03:58;;;;;;;3.97;3.03;;;;;;;3.50;100.00;101371.63;5065403;28;20450;-64
2023/03/16 06:06:24;;;;;;;4.73;3.17;;;;;;;3.51;100.00;101368.28;5066496;28;20032;-65
2023/03/16 06:08:49;;;;;;;8.20;3.47;;;;;;;3.52;100.00;101376.88;5064330;28;20068;-65
2023/03/16 06:11:14;;;;;;;3.70;2.70;;;;;;;3.51;100.00;101373.41;5058923;28;20032;-64
2023/03/16 06:13:40;;;;;;;4.70;3.03;;;;;;;3.54;100.00;101376.19;5048549;28;20025;-65
2023/03/16 06:16:06;;;;;;;4.90;3.23;;;;;;;3.57;100.00;101372.94;5059001;28;20430;-66
2023/03/16 06:18:33;;;;;;;5.13;2.97;;;;;;;3.57;100.00;101378.97;5067472;28;20070;-65
2023/03/16 06:20:58;;;;;;;5.53;3.23;;;;;;;3.62;100.00;101370.72;5051828;28;20029;-65
2023/03/16 06:23:24;;;;;;;3.50;3.17;;;;;;;3.63;100.00;101377.59;5050422;28;20099;-65
2023/03/16 06:25:50;;;;;;;6.80;3.80;;;;;;;3.64;100.00;101380.28;5051035;28;20025;-65
2023/03/16 06:28:16;;;;;;;6.13;3.40;;;;;;;3.67;100.00;101377.06;5046850;28;20027;-65
2023/03/16 06:30:41;;;;;;;5.87;3.10;;;;;;;3.72;100.00;101368.00;5035283;28;20109;-64
2023/03/16 06:33:07;;;;;;;5.23;3.50;;;;;;;3.75;100.00;101378.44;5041081;28;20016;-65
2023/03/16 06:35:32;;;;;;;4.53;3.20;;;;;;;3.76;100.00;101369.09;5053662;28;20115;-65
2023/03/16 06:37:58;;;;;;;5.35;3.55;;;;;;;3.78;100.00;101373.53;5045357;28;20539;-64
2023/03/16 06:40:23;;;;;;;5.17;3.23;;;;;;;3.79;100.00;101375.31;5054452;28;20474;-65
2023/03/16 06:42:49;;;;;;;5.93;3.50;;;;;;;3.80;100.00;101369.41;5041470;28;20025;-65
2023/03/16 06:45:15;;;;;;;5.47;3.65;;;;;;;3.80;100.00;101366.84;5052522;28;20384;-65
2023/03/16 06:47:42;;;;;;;5.32;3.67;;;;;;;3.80;100.00;101371.06;5048219;28;20032;-65
2023/03/16 06:50:08;;;;;;;4.43;3.22;;;;;;;3.80;100.00;101368.50;5059222;28;20075;-64
2023/03/16 06:52:34;;;;;;;6.13;3.38;;;;;;;3.80;100.00;101361.72;5032613;28;20452;-65
2023/03/16 06:55:00;;;;;;;6.97;3.30;;;;;;;3.82;100.00;101357.56;5047573;28;20028;-64
2023/03/16 06:57:25;;;;;;;6.22;3.35;;;;;;;3.85;100.00;101359.44;5038370;28;20048;-64
2023/03/16 06:59:50;;;;;;;5.03;2.90;;;;;;;3.89;100.00;101374.25;5054430;28;20302;-65
2023/03/16 07:02:16;;;;;;;6.07;3.50;;;;;;;3.91;100.00;101364.09;5038925;28;20034;-66
2023/03/16 07:04:41;;;;;;;7.20;3.35;;;;;;;3.92;100.00;101363.34;5050679;28;20444;-65
2023/03/16 07:07:07;;;;;;;5.53;3.55;;;;;;;3.94;100.00;101361.78;5039935;28;20069;-65
2023/03/16 07:09:33;;;;;;;4.82;3.03;;;;;;;3.97;100.00;101356.84;5046426;28;20078;-64
2023/03/16 07:11:58;;;;;;;4.55;2.65;;;;;;;4.02;100.00;101352.91;5037094;28;20031;-65
2023/03/16 07:14:25;;;;;;;4.40;2.93;;;;;;;4.03;100.00;101357.22;5045124;28;20140;-64
2023/03/16 07:16:51;;;;;;;5.00;3.37;;;;;;;4.07;100.00;101354.09;5048657;28;20099;-65
2023/03/16 07:19:17;;;;;;;5.55;2.63;;;;;;;4.13;100.00;101353.63;5043932;28;20442;-65
2023/03/16 07:21:42;;;;;;;4.40;2.72;;;;;;;4.16;100.00;101340.09;5048471;28;20028;-65
2023/03/16 07:24:08;;;;;;;6.38;3.45;;;;;;;4.18;100.00;101348.78;5042488;28;20029;-64
2023/03/16 07:26:34;;;;;;;3.58;3.03;;;;;;;4.22;100.00;101350.78;5046728;28;20389;-64
2023/03/16 07:29:00;;;;;;;6.60;3.00;;;;;;;4.28;100.00;101347.75;5046367;28;20025;-64
2023/03/16 07:31:25;;;;;;;3.15;2.78;;;;;;;4.31;100.00;101345.38;5048797;28;20067;-64
2023/03/16 07:33:51;;;;;;;5.60;2.88;;;;;;;4.33;100.00;101330.97;5040612;28;20033;-64
2023/03/16 07:36:16;;;;;;;5.57;3.50;;;;;;;4.39;100.00;101343.31;5056937;28;20025;-65
2023/03/16 07:38:42;;;;;;;3.25;2.92;;;;;;;4.46;100.00;101342.91;5048233;28;20089;-64
2023/03/16 07:41:07;;;;;;;5.97;3.05;;;;;;;4.51;100.00;101338.06;5055044;28;20032;-64
2023/03/16 07:43:33;;;;;;;4.85;2.65;;;;;;;4.53;100.00;101347.63;5048062;28;20060;-65
2023/03/16 07:45:58;;;;;;;5.22;3.28;;;;;;;4.56;100.00;101347.84;5055020;28;20041;-64
2023/03/16 07:48:24;;;;;;;4.82;3.03;;;;;;;4.60;100.00;101345.47;5051076;28;20031;-65
2023/03/16 07:50:50;;;;;;;6.40;2.85;;;;;;;4.64;100.00;101342.34;5059462;28;20469;-65
2023/03/16 07:53:16;;;;;;;2.95;2.70;;;;;;;4.65;100.00;101342.44;5047135;28;20047;-65
2023/03/16 07:55:42;;;;;;;4.35;3.30;;;;;;;4.66;100.00;101344.19;5051431;28;20172;-65
2023/03/16 07:58:09;;;;;;;3.60;2.88;;;;;;;4.72;100.00;101342.81;5038523;28;20469;-64
2023/03/16 08:00:35;;;;;;;3.70;3.00;;;;;;;4.74;100.00;101341.22;5050376;28;20064;-65
2023/03/16 08:03:00;;;;;;;4.95;3.40;;;;;;;4.78;100.00;101341.53;5047691;28;20033;-64
2023/03/16 08:05:26;;;;;;;4.63;2.97;;;;;;;4.84;100.00;101335.88;5050176;28;20454;-65
2023/03/16 08:07:52;;;;;;;3.83;2.70;;;;;;;4.86;100.00;101341.09;5055498;28;20032;-65
2023/03/16 08:10:17;;;;;;;5.10;3.10;;;;;;;4.89;100.00;101338.75;5042707;28;20457;-65
2023/03/16 08:12:43;;;;;;;6.00;3.00;;;;;;;4.92;100.00;101341.50;5048937;28;20048;-65
2023/03/16 08:15:09;;;;;;;3.40;2.80;;;;;;;4.97;100.00;101337.56;5053610;28;20029;-65
2023/03/16 08:17:35;;;;;;;5.30;3.20;;;;;;;5.03;100.00;101340.53;5047917;28;20107;-65
2023/03/16 08:20:01;;;;;;;4.72;3.58;;;;;;;5.07;100.00;101335.56;5057118;28;20033;-64
2023/03/16 08:22:26;;;;;;;6.00;3.17;;;;;;;5.12;100.00;101341.88;5043277;28;20032;-65
2023/03/16 08:24:52;;;;;;;5.43;2.97;;;;;;;5.16;100.00;101339.59;5036085;28;21046;-65
2023/03/16 08:27:19;;;;;;;5.28;3.05;;;;;;;5.20;100.00;101343.22;5028893;28;20505;-65
2023/03/16 08:29:45;;;;;;;5.15;3.47;;;;;;;5.25;100.00;101346.09;5034708;28;20036;-64
2023/03/16 08:32:11;;;;;;;5.30;3.13;;;;;;;5.26;100.00;101338.50;5031889;28;20029;-65
2023/03/16 08:34:38;;;;;;;4.60;3.33;;;;;;;5.32;100.00;101344.78;5033314;28;20025;-65
2023/03/16 08:37:04;;;;;;;3.90;3.38;;;;;;;5.36;100.00;101344.19;5029243;28;20453;-65
2023/03/16 08:39:29;;;;;;;5.68;3.50;;;;;;;5.41;100.00;101346.25;5033089;28;20047;-65
2023/03/16 08:41:55;;;;;;;6.85;3.30;;;;;;;5.46;100.00;101348.22;5031114;28;20071;-65
2023/03/16 08:44:22;;;;;;;5.63;3.42;;;;;;;5.56;100.00;101334.25;5031742;28;20560;-65
2023/03/16 08:46:47;;;;;;;4.15;3.17;;;;;;;5.60;100.00;101344.81;5029379;28;20428;-64
2023/03/16 08:49:13;;;;;;;4.88;3.15;;;;;;;5.68;100.00;101342.69;5031086;28;20028;-64
2023/03/16 08:51:38;;;;;;;3.92;3.28;;;;;;;5.71;100.00;101345.44;5031783;28;20017;-65
2023/03/16 08:54:04;;;;;;;6.30;3.10;;;;;;;5.76;100.00;101340.56;5036803;28;20098;-65
2023/03/16 08:56:29;;;;;;;4.32;3.70;;;;;;;5.82;100.00;101340.94;5034213;28;20113;-65
2023/03/16 08:58:56;;;;;;;6.95;3.75;;;;;;;5.86;99.82;101339.44;5030329;28;20027;-65
2023/03/16 09:01:22;;;;;;;5.43;3.25;;;;;;;5.92;100.00;101326.94;5031446;28;20037;-65
2023/03/16 09:03:47;;;;;;;4.85;3.33;;;;;;;5.98;99.79;101327.31;5034760;28;20025;-64
2023/03/16 09:06:15;;;;;;;3.83;3.08;;;;;;;5.99;100.00;101323.06;5032685;28;20037;-65
2023/03/16 09:08:44;;;;;;;5.95;3.50;;;;;;;6.05;100.00;101325.06;5034156;28;20043;-65
2023/03/16 09:11:13;;;;;;;5.07;3.20;;;;;;;6.12;98.91;101324.66;5029964;28;20459;-65
2023/03/16 09:13:39;;;;;;;5.88;3.30;;;;;;;6.17;99.41;101314.66;5032321;28;20032;-65
2023/03/16 09:16:05;;;;;;;4.40;3.08;;;;;;;6.27;97.27;101322.09;5031578;28;20018;-65
2023/03/16 09:18:32;;;;;;;4.63;2.83;;;;;;;6.35;97.03;101307.97;5049139;28;20052;-65
2023/03/16 09:20:58;;;;;;;5.00;3.03;;;;;;;6.46;97.16;101310.25;5047618;28;20030;-65
2023/03/16 09:23:25;;;;;;;3.25;2.40;;;;;;;6.56;95.41;101309.13;5055872;28;20028;-65
2023/03/16 09:25:50;;;;;;;5.65;2.53;;;;;;;6.66;92.27;101313.97;5059852;28;20033;-65
2023/03/16 09:28:16;;;;;;;5.13;2.38;;;;;;;6.72;91.44;101309.19;5065061;28;20017;-65
2023/03/16 09:30:42;;;;;;;5.20;2.30;;;;;;;6.77;89.16;101316.25;5066456;28;20035;-65
2023/03/16 09:33:07;;;;;;;3.63;2.35;;;;;;;6.84;91.47;101313.22;5054203;28;20103;-65
2023/03/16 09:35:33;;;;;;;4.07;2.45;;;;;;;6.99;88.27;101309.69;5066892;28;20240;-65
2023/03/16 09:37:58;;;;;;;4.95;2.10;;;;;;;7.05;87.40;101317.78;5064743;28;20107;-65
2023/03/16 09:40:27;;;;;;;5.78;2.50;;;;;;;7.13;87.15;101310.44;5066444;28;20016;-65
2023/03/16 09:42:53;;;;;;;3.10;2.15;;;;;;;7.18;84.83;101298.69;5063906;28;20563;-65
2023/03/16 09:45:27;;;;;;;3.17;1.95;;;;;;;7.23;86.35;101305.00;5066640;28;20056;-64
2023/03/16 09:47:56;;;;;;;3.90;2.08;;;;;;;7.34;86.52;101308.13;5062971;28;20536;-65
2023/03/16 09:50:29;;;;;;;4.80;2.10;;;;;;;7.59;85.35;101311.13;5065978;28;20047;-65
2023/03/16 09:53:04;;;;;;;5.82;2.22;;;;;;;7.84;84.28;101307.22;5065312;28;20048;-65
2023/03/16 09:55:33;;;;;;;4.03;2.20;;;;;;;8.13;81.80;101306.06;5064862;28;20157;-65
2023/03/16 09:58:00;;;;;;;3.80;1.95;;;;;;;8.32;81.55;101304.41;5065811;28;20021;-65
2023/03/16 10:00:30;;;;;;;2.72;1.98;;;;;;;8.51;80.26;101297.53;5030404;28;20095;-65
2023/03/16 10:03:02;;;;;;;3.70;2.20;;;;;;;8.61;77.80;101288.56;5029814;28;20021;-65
2023/03/16 10:05:28;;;;;;;3.17;2.00;;;;;;;8.60;75.74;101285.09;5034731;28;20051;-65
2023/03/16 10:08:07;;;;;;;4.15;2.55;;;;;;;8.65;76.30;101270.69;5032479;28;20037;-66
2023/03/16 10:11:01;;;;;;;3.45;1.90;;;;;;;8.82;77.34;101277.47;5031145;28;20532;-65
2023/03/16 10:13:52;;;;;;;3.72;2.15;;;;;;;9.03;74.88;101271.53;5030928;28;20064;-65
2023/03/16 10:16:22;;;;;;;5.27;2.07;;;;;;;9.13;72.18;101269.44;5028800;28;20018;-65
2023/03/16 10:18:52;;;;;;;2.40;1.52;;;;;;;9.26;72.78;101269.97;5032609;28;20393;-65
2023/03/16 10:21:20;;;;;;;3.37;1.80;;;;;;;9.34;71.56;101268.59;5035966;28;20038;-66
2023/03/16 10:23:47;;;;;;;2.50;1.83;;;;;;;9.45;70.83;101257.81;5031034;28;20037;-65
2023/03/16 10:26:21;;;;;;;2.78;1.58;;;;;;;9.48;69.34;101263.13;5035191;28;20411;-65
2023/03/16 10:28:47;;;;;;;5.93;1.98;;;;;;;9.56;69.56;101264.34;5025920;28;20508;-65
2023/03/16 10:31:15;;;;;;;3.63;1.70;;;;;;;9.73;70.50;101264.19;5027912;28;20025;-66
2023/03/16 10:33:40;;;;;;;3.67;1.70;;;;;;;9.84;69.05;101265.53;5028537;28;20025;-65
2023/03/16 10:36:14;;;;;;;2.75;1.33;;;;;;;9.92;68.84;101262.38;5033128;28;20075;-63
2023/03/16 10:38:45;;;;;;;3.30;2.08;;;;;;;9.91;67.81;101260.63;5030477;28;20039;-65
2023/03/16 10:41:17;;;;;;;;;;;;;;;9.90;68.50;101259.72;5032862;28;20041;-66
2023/03/16 10:43:46;;;;;;;;;;;;;;;9.88;66.75;101265.63;5035732;28;19912;-63
2023/03/16 10:46:12;;;;;;;4.45;1.58;;;;;;;9.94;67.17;101255.56;5029749;28;20420;-66
2023/03/16 10:48:39;;;;;;;4.15;1.73;;;;;;;10.02;66.74;101259.31;5029573;28;20060;-66
2023/03/16 10:51:12;;;;;;;3.65;1.60;;;;;;;9.99;63.64;101248.84;5028860;28;20105;-65
2023/03/16 10:53:41;;;;;;;2.92;1.65;;;;;;;10.08;65.34;101241.47;5033646;28;20131;-66
2023/03/16 10:56:12;;;;;;;2.38;1.20;;;;;;;10.24;64.38;101247.25;5031533;28;20079;-65
2023/03/16 10:58:41;;;;;;;3.03;1.45;;;;;;;10.38;63.69;101244.34;5028557;28;20033;-66
2023/03/16 11:01:19;;;;;;;2.88;1.60;;;;;;;10.57;64.91;101243.38;5027746;28;20029;-64
2023/03/16 11:03:52;;;;;;;3.95;1.50;;;;;;;10.69;63.61;101237.78;5029671;28;20108;-64
2023/03/16 11:06:23;;;;;;;4.45;1.85;;;;;;;10.64;60.31;101235.03;5033686;28;20017;-64
2023/03/16 11:08:50;;;;;;;3.03;1.30;;;;;;;10.62;61.28;101238.38;5029074;28;20543;-65
2023/03/16 11:11:23;;;;;;;4.28;1.60;;;;;;;10.62;61.10;101235.78;5033517;28;20028;-64
2023/03/16 11:13:48;;;;;;;1.58;1.13;;;;;;;10.51;59.80;101238.84;5034694;28;20116;-64
2023/03/16 11:16:30;;;;;;;3.60;1.52;;;;;;;10.49;61.44;101222.34;5036525;28;20096;-66
2023/03/16 11:18:59;;;;;;;2.53;1.17;;;;;;;10.55;61.82;101219.09;5032646;28;20257;-64
2023/03/16 11:21:37;;;;;;;4.00;1.52;;;;;;;10.55;62.68;101214.81;5044189;28;20045;-64
2023/03/16 11:24:08;;;;;;;2.40;1.40;;;;;;;10.49;60.38;101206.78;5049715;28;20067;-64
2023/03/16 11:26:38;;;;;;;3.67;1.70;;;;;;;10.56;62.94;101201.03;5050045;28;20424;-64